createdAt,value
2023-05-06T00:00:32.640Z,31.31
2023-05-06T00:01:32.633Z,31.25
2023-05-06T00:02:32.672Z,31.32
2023-05-06T00:03:32.861Z,31.35
2023-05-06T00:04:32.756Z,31.42
2023-05-06T00:05:32.702Z,31.42
2023-05-06T00:06:32.730Z,31.45
2023-05-06T00:07:32.710Z,31.27
2023-05-06T00:08:32.697Z,31.38
2023-05-06T00:09:32.684Z,31.34
2023-05-06T00:10:32.675Z,31.25
2023-05-06T00:11:32.664Z,31.21
2023-05-06T00:12:32.701Z,31.18
2023-05-06T00:13:32.644Z,31.08
2023-05-06T00:14:32.634Z,31.14
2023-05-06T00:15:32.617Z,31.08
2023-05-06T00:16:32.641Z,31.07
2023-05-06T00:17:32.618Z,31.00
2023-05-06T00:18:32.575Z,31.16
2023-05-06T00:19:32.556Z,31.13
2023-05-06T00:20:32.579Z,31.10
2023-05-06T00:21:32.525Z,31.24
2023-05-06T00:22:32.524Z,31.33
2023-05-06T00:23:32.508Z,31.31
2023-05-06T00:24:32.497Z,31.41
2023-05-06T00:25:32.492Z,31.39
2023-05-06T00:26:32.470Z,31.50
2023-05-06T00:27:32.473Z,31.29
2023-05-06T00:28:32.463Z,31.21
2023-05-06T00:29:32.441Z,31.34
2023-05-06T00:30:32.438Z,31.54
2023-05-06T00:31:32.504Z,31.25
2023-05-06T00:32:32.473Z,31.17
2023-05-06T00:33:32.422Z,31.14
2023-05-06T00:34:32.419Z,31.19
2023-05-06T00:35:32.397Z,31.30
2023-05-06T00:36:32.405Z,31.30
2023-05-06T00:37:32.380Z,31.25
2023-05-06T00:38:32.363Z,31.31
2023-05-06T00:39:32.353Z,31.43
2023-05-06T00:40:32.346Z,31.44
2023-05-06T00:41:32.319Z,31.37
2023-05-06T00:42:32.320Z,31.32
2023-05-06T00:43:32.302Z,31.29
2023-05-06T00:44:32.277Z,31.47
2023-05-06T00:45:32.278Z,31.52
2023-05-06T00:46:32.253Z,31.44
2023-05-06T00:47:32.249Z,31.28
2023-05-06T00:48:32.249Z,31.16
2023-05-06T00:49:32.218Z,31.12
2023-05-06T00:50:32.197Z,31.19
2023-05-06T00:51:32.167Z,31.08
2023-05-06T00:52:32.162Z,31.11
2023-05-06T00:53:32.140Z,31.20
2023-05-06T00:54:32.137Z,31.32
2023-05-06T00:55:32.119Z,31.44
2023-05-06T00:56:32.113Z,31.47
2023-05-06T00:57:32.093Z,31.53
2023-05-06T00:58:32.077Z,31.40
2023-05-06T00:59:32.067Z,31.45
2023-05-06T01:00:32.054Z,31.25
2023-05-06T01:01:32.141Z,31.23
2023-05-06T01:02:43.403Z,31.27
2023-05-06T01:03:33.170Z,31.41
2023-05-06T01:04:32.047Z,31.27
2023-05-06T01:05:32.022Z,31.16
2023-05-06T01:06:32.022Z,31.16
2023-05-06T01:07:32.001Z,31.18
2023-05-06T01:08:31.995Z,31.23
2023-05-06T01:09:31.996Z,31.15
2023-05-06T01:10:31.978Z,31.11
2023-05-06T01:11:31.969Z,31.02
2023-05-06T01:12:32.160Z,31.04
2023-05-06T01:13:31.953Z,31.10
2023-05-06T01:14:31.945Z,31.04
2023-05-06T01:15:31.930Z,31.05
2023-05-06T01:16:31.971Z,31.07
2023-05-06T01:17:31.947Z,31.06
2023-05-06T01:18:31.913Z,31.03
2023-05-06T01:19:31.974Z,31.00
2023-05-06T01:20:31.881Z,31.09
2023-05-06T01:21:31.880Z,31.10
2023-05-06T01:22:31.875Z,31.14
2023-05-06T01:23:31.855Z,31.07
2023-05-06T01:24:31.846Z,31.05
2023-05-06T01:25:31.851Z,30.96
2023-05-06T01:26:31.830Z,30.97
2023-05-06T01:27:31.810Z,31.01
2023-05-06T01:28:31.789Z,30.96
2023-05-06T01:29:31.783Z,30.96
2023-05-06T01:30:31.766Z,30.89
2023-05-06T01:31:31.832Z,30.96
2023-05-06T01:32:31.790Z,30.90
2023-05-06T01:33:31.747Z,30.87
2023-05-06T01:34:31.726Z,30.94
2023-05-06T01:35:31.804Z,31.01
2023-05-06T01:36:31.753Z,31.00
2023-05-06T01:37:31.756Z,30.94
2023-05-06T01:38:31.765Z,30.95
2023-05-06T01:39:31.808Z,30.91
2023-05-06T01:40:31.797Z,30.89
2023-05-06T01:41:31.813Z,30.88
2023-05-06T01:42:31.837Z,30.88
2023-05-06T01:43:31.860Z,30.95
2023-05-06T01:44:31.874Z,30.91
2023-05-06T01:45:31.925Z,30.91
2023-05-06T01:46:31.939Z,30.85
2023-05-06T01:47:31.935Z,30.89
2023-05-06T01:48:31.931Z,30.86
2023-05-06T01:49:31.938Z,30.82
2023-05-06T01:50:31.953Z,30.73
2023-05-06T01:51:32.023Z,30.78
2023-05-06T01:52:31.968Z,30.74
2023-05-06T01:53:32.001Z,30.73
2023-05-06T01:54:32.001Z,30.66
2023-05-06T01:55:32.011Z,30.71
2023-05-06T01:56:32.039Z,30.69
2023-05-06T01:57:32.032Z,30.64
2023-05-06T01:58:32.048Z,30.68
2023-05-06T01:59:32.058Z,30.65
2023-05-06T02:00:32.072Z,30.67
2023-05-06T02:01:32.133Z,30.56
2023-05-06T02:02:32.188Z,30.48
2023-05-06T02:03:32.191Z,30.64
2023-05-06T02:04:32.125Z,30.57
2023-05-06T02:05:32.141Z,30.49
2023-05-06T02:06:32.152Z,30.51
2023-05-06T02:07:32.257Z,30.47
2023-05-06T02:08:32.190Z,30.52
2023-05-06T02:09:32.191Z,30.49
2023-05-06T02:10:32.226Z,30.50
2023-05-06T02:11:32.287Z,30.52
2023-05-06T02:12:32.268Z,30.46
2023-05-06T02:13:32.288Z,30.48
2023-05-06T02:14:32.319Z,30.47
2023-05-06T02:15:32.357Z,30.51
2023-05-06T02:16:32.442Z,30.48
2023-05-06T02:17:32.440Z,30.46
2023-05-06T02:18:32.478Z,30.55
2023-05-06T02:19:32.501Z,30.54
2023-05-06T02:20:32.529Z,30.53
2023-05-06T02:21:32.570Z,30.58
2023-05-06T02:22:32.605Z,30.54
2023-05-06T02:23:32.756Z,30.53
2023-05-06T02:24:32.728Z,30.58
2023-05-06T02:25:32.764Z,30.56
2023-05-06T02:26:32.814Z,30.57
2023-05-06T02:27:32.859Z,30.60
2023-05-06T02:28:32.913Z,30.57
2023-05-06T02:29:32.965Z,30.58
2023-05-06T02:30:33.010Z,30.53
2023-05-06T02:31:33.087Z,30.53
2023-05-06T02:32:33.153Z,30.44
2023-05-06T02:33:33.157Z,30.50
2023-05-06T02:34:33.169Z,30.42
2023-05-06T02:35:33.203Z,30.47
2023-05-06T02:36:33.238Z,30.47
2023-05-06T02:37:33.258Z,30.45
2023-05-06T02:38:33.294Z,30.44
2023-05-06T02:39:33.387Z,30.44
2023-05-06T02:40:33.335Z,30.33
2023-05-06T02:41:33.370Z,30.39
2023-05-06T02:42:33.425Z,30.36
2023-05-06T02:43:33.411Z,30.32
2023-05-06T02:44:33.429Z,30.35
2023-05-06T02:45:33.474Z,30.35
2023-05-06T02:46:33.469Z,30.34
2023-05-06T02:47:33.517Z,30.31
2023-05-06T02:48:33.524Z,30.33
2023-05-06T02:49:33.531Z,30.30
2023-05-06T02:50:33.549Z,30.30
2023-05-06T02:51:33.585Z,30.31
2023-05-06T02:52:33.601Z,30.26
2023-05-06T02:53:33.624Z,30.27
2023-05-06T02:54:33.634Z,30.26
2023-05-06T02:55:33.720Z,30.29
2023-05-06T02:56:33.663Z,30.27
2023-05-06T02:57:33.686Z,30.28
2023-05-06T02:58:33.702Z,30.26
2023-05-06T02:59:33.718Z,30.30
2023-05-06T03:00:33.734Z,30.34
2023-05-06T03:01:33.834Z,30.31
2023-05-06T03:02:33.860Z,30.29
2023-05-06T03:03:33.834Z,30.35
2023-05-06T03:04:34.002Z,30.35
2023-05-06T03:05:33.925Z,30.49
2023-05-06T03:06:33.991Z,30.47
2023-05-06T03:07:34.024Z,30.58
2023-05-06T03:08:34.092Z,30.67
2023-05-06T03:09:34.158Z,30.68
2023-05-06T03:10:34.231Z,30.73
2023-05-06T03:11:34.305Z,30.68
2023-05-06T03:12:34.359Z,30.68
2023-05-06T03:13:34.416Z,30.71
2023-05-06T03:14:34.474Z,30.75
2023-05-06T03:15:34.506Z,30.71
2023-05-06T03:16:34.591Z,30.75
2023-05-06T03:17:34.592Z,30.78
2023-05-06T03:18:34.584Z,30.79
2023-05-06T03:19:34.617Z,30.82
2023-05-06T03:20:34.622Z,30.91
2023-05-06T03:21:34.706Z,30.97
2023-05-06T03:22:34.639Z,31.00
2023-05-06T03:23:34.686Z,31.02
2023-05-06T03:24:34.668Z,31.08
2023-05-06T03:25:34.665Z,31.02
2023-05-06T03:26:34.662Z,31.09
2023-05-06T03:27:34.684Z,31.09
2023-05-06T03:28:34.707Z,31.17
2023-05-06T03:29:34.744Z,31.27
2023-05-06T03:30:34.751Z,31.21
2023-05-06T03:31:34.841Z,31.16
2023-05-06T03:32:34.843Z,31.21
2023-05-06T03:33:34.777Z,31.23
2023-05-06T03:34:34.782Z,31.25
2023-05-06T03:35:34.777Z,31.31
2023-05-06T03:36:34.761Z,31.35
2023-05-06T03:37:34.765Z,31.40
2023-05-06T03:38:34.791Z,31.41
2023-05-06T03:39:34.761Z,31.37
2023-05-06T03:40:34.765Z,31.47
2023-05-06T03:41:34.791Z,31.51
2023-05-06T03:42:34.771Z,31.54
2023-05-06T03:43:34.930Z,31.56
2023-05-06T03:44:34.764Z,31.59
2023-05-06T03:45:34.767Z,31.63
2023-05-06T03:46:34.894Z,31.66
2023-05-06T03:47:34.806Z,31.66
2023-05-06T03:48:34.777Z,31.62
2023-05-06T03:49:34.778Z,31.50
2023-05-06T03:50:34.764Z,31.54
2023-05-06T03:51:34.785Z,31.56
2023-05-06T03:52:34.776Z,31.58
2023-05-06T03:53:34.786Z,31.59
2023-05-06T03:54:34.795Z,31.59
2023-05-06T03:55:34.800Z,31.65
2023-05-06T03:56:34.820Z,31.66
2023-05-06T03:57:34.797Z,31.67
2023-05-06T03:58:34.835Z,31.76
2023-05-06T03:59:34.793Z,31.78
2023-05-06T04:00:34.799Z,31.81
2023-05-06T04:01:34.807Z,31.85
2023-05-06T04:02:34.861Z,31.92
2023-05-06T04:03:34.880Z,31.87
2023-05-06T04:04:34.819Z,31.97
2023-05-06T04:05:34.864Z,31.96
2023-05-06T04:06:34.897Z,31.97
2023-05-06T04:07:34.952Z,31.93
2023-05-06T04:08:35.008Z,31.89
2023-05-06T04:09:35.077Z,31.83
2023-05-06T04:10:35.106Z,31.82
2023-05-06T04:11:35.147Z,31.75
2023-05-06T04:12:35.224Z,31.76
2023-05-06T04:13:35.253Z,31.78
2023-05-06T04:14:35.319Z,31.81
2023-05-06T04:15:35.394Z,31.81
2023-05-06T04:16:35.469Z,31.82
2023-05-06T04:17:35.461Z,31.87
2023-05-06T04:18:35.430Z,31.87
2023-05-06T04:19:35.443Z,31.82
2023-05-06T04:20:35.442Z,31.83
2023-05-06T04:21:35.434Z,31.84
2023-05-06T04:22:35.437Z,31.82
2023-05-06T04:23:35.489Z,31.80
2023-05-06T04:24:35.439Z,31.76
2023-05-06T04:25:35.439Z,31.80
2023-05-06T04:26:35.422Z,31.82
2023-05-06T04:27:35.468Z,31.80
2023-05-06T04:28:35.446Z,31.87
2023-05-06T04:29:35.420Z,31.89
2023-05-06T04:30:35.428Z,31.87
2023-05-06T04:31:35.548Z,31.86
2023-05-06T04:32:35.443Z,31.87
2023-05-06T04:33:35.426Z,31.84
2023-05-06T04:34:35.428Z,31.87
2023-05-06T04:35:35.433Z,31.87
2023-05-06T04:36:35.428Z,31.86
2023-05-06T04:37:35.439Z,31.83
2023-05-06T04:38:35.435Z,31.88
2023-05-06T04:39:35.436Z,31.96
2023-05-06T04:40:35.446Z,31.99
2023-05-06T04:41:35.440Z,32.01
2023-05-06T04:42:35.445Z,31.96
2023-05-06T04:43:35.455Z,31.96
2023-05-06T04:44:35.455Z,31.92
2023-05-06T04:45:35.472Z,32.01
2023-05-06T04:46:35.448Z,32.07
2023-05-06T04:47:35.532Z,32.05
2023-05-06T04:48:35.456Z,32.14
2023-05-06T04:49:35.442Z,32.07
2023-05-06T04:50:35.449Z,32.15
2023-05-06T04:51:35.449Z,32.17
2023-05-06T04:52:35.437Z,32.14
2023-05-06T04:53:35.461Z,32.14
2023-05-06T04:54:35.465Z,32.11
2023-05-06T04:55:35.461Z,32.15
2023-05-06T04:56:35.522Z,32.15
2023-05-06T04:57:35.573Z,32.20
2023-05-06T04:58:35.607Z,32.24
2023-05-06T04:59:35.605Z,32.24
2023-05-06T05:00:35.616Z,32.25
2023-05-06T05:01:35.650Z,32.36
2023-05-06T05:02:35.717Z,32.32
2023-05-06T05:03:35.803Z,32.41
2023-05-06T05:04:35.690Z,32.42
2023-05-06T05:05:35.761Z,32.48
2023-05-06T05:06:35.839Z,32.42
2023-05-06T05:07:35.894Z,32.48
2023-05-06T05:08:35.969Z,32.39
2023-05-06T05:09:36.027Z,32.43
2023-05-06T05:10:36.090Z,32.38
2023-05-06T05:11:36.143Z,32.40
2023-05-06T05:12:36.228Z,32.37
2023-05-06T05:13:36.148Z,32.33
2023-05-06T05:14:36.137Z,32.36
2023-05-06T05:15:36.141Z,32.36
2023-05-06T05:16:36.185Z,32.30
2023-05-06T05:17:36.174Z,32.26
2023-05-06T05:18:36.161Z,32.25
2023-05-06T05:19:36.195Z,32.26
2023-05-06T05:20:36.121Z,32.32
2023-05-06T05:21:36.187Z,32.36
2023-05-06T05:22:36.147Z,32.39
2023-05-06T05:23:36.124Z,32.42
2023-05-06T05:24:36.197Z,32.47
2023-05-06T05:25:36.160Z,32.40
2023-05-06T05:26:36.206Z,32.41
2023-05-06T05:27:36.126Z,32.41
2023-05-06T05:28:36.154Z,32.35
2023-05-06T05:29:36.148Z,32.36
2023-05-06T05:30:36.203Z,32.35
2023-05-06T05:31:36.188Z,32.35
2023-05-06T05:32:36.243Z,32.40
2023-05-06T05:33:36.336Z,32.35
2023-05-06T05:34:36.279Z,32.30
2023-05-06T05:35:36.402Z,32.30
2023-05-06T05:36:36.401Z,32.30
2023-05-06T05:37:36.455Z,32.25
2023-05-06T05:38:36.531Z,32.24
2023-05-06T05:39:36.597Z,32.20
2023-05-06T05:40:36.659Z,32.29
2023-05-06T05:41:36.762Z,32.33
2023-05-06T05:42:36.805Z,32.30
2023-05-06T05:43:36.852Z,32.37
2023-05-06T05:44:36.930Z,32.40
2023-05-06T05:45:37.006Z,32.40
2023-05-06T05:46:37.080Z,32.41
2023-05-06T05:47:37.086Z,32.48
2023-05-06T05:48:37.085Z,32.58
2023-05-06T05:49:37.099Z,32.69
2023-05-06T05:50:37.084Z,32.63
2023-05-06T05:51:37.209Z,32.70
2023-05-06T05:52:37.125Z,32.66
2023-05-06T05:53:37.124Z,32.71
2023-05-06T05:54:37.140Z,32.73
2023-05-06T05:55:37.131Z,32.89
2023-05-06T05:56:37.134Z,32.82
2023-05-06T05:57:37.122Z,32.82
2023-05-06T05:58:37.141Z,32.84
2023-05-06T05:59:37.135Z,32.97
2023-05-06T06:00:37.121Z,33.05
2023-05-06T06:01:37.110Z,32.99
2023-05-06T06:02:37.201Z,32.97
2023-05-06T06:03:37.349Z,32.91
2023-05-06T06:04:37.327Z,32.90
2023-05-06T06:05:37.327Z,32.90
2023-05-06T06:06:37.388Z,32.83
2023-05-06T06:07:37.454Z,32.84
2023-05-06T06:08:37.395Z,32.84
2023-05-06T06:09:37.394Z,32.86
2023-05-06T06:10:37.392Z,32.87
2023-05-06T06:11:37.374Z,32.78
2023-05-06T06:12:37.420Z,32.72
2023-05-06T06:13:37.388Z,32.65
2023-05-06T06:14:37.382Z,32.60
2023-05-06T06:15:37.371Z,32.68
2023-05-06T06:16:37.526Z,32.65
2023-05-06T06:17:37.443Z,32.65
2023-05-06T06:18:37.413Z,32.71
2023-05-06T06:19:37.375Z,32.69
2023-05-06T06:20:37.385Z,32.78
2023-05-06T06:21:37.385Z,32.84
2023-05-06T06:22:37.394Z,32.82
2023-05-06T06:23:37.457Z,32.97
2023-05-06T06:24:37.442Z,32.95
2023-05-06T06:25:37.391Z,32.90
2023-05-06T06:26:37.375Z,32.97
2023-05-06T06:27:37.365Z,33.02
2023-05-06T06:28:37.383Z,33.11
2023-05-06T06:29:37.363Z,33.07
2023-05-06T06:30:37.395Z,33.08
2023-05-06T06:31:39.679Z,32.90
2023-05-06T06:32:37.463Z,33.03
2023-05-06T06:33:37.448Z,32.90
2023-05-06T06:34:37.448Z,32.90
2023-05-06T06:35:37.450Z,32.83
2023-05-06T06:36:37.448Z,32.72
2023-05-06T06:37:37.445Z,32.68
2023-05-06T06:38:37.445Z,32.64
2023-05-06T06:39:37.504Z,32.58
2023-05-06T06:40:37.458Z,32.64
2023-05-06T06:41:37.449Z,32.65
2023-05-06T06:42:37.914Z,32.64
2023-05-06T06:43:37.454Z,32.60
2023-05-06T06:44:37.456Z,32.59
2023-05-06T06:45:37.470Z,32.70
2023-05-06T06:46:37.460Z,32.63
2023-05-06T06:47:37.495Z,32.62
2023-05-06T06:48:37.433Z,32.63
2023-05-06T06:49:37.444Z,32.59
2023-05-06T06:50:37.430Z,32.52
2023-05-06T06:51:37.431Z,32.49
2023-05-06T06:52:37.426Z,32.42
2023-05-06T06:53:37.443Z,32.42
2023-05-06T06:54:37.431Z,32.36
2023-05-06T06:55:37.513Z,32.36
2023-05-06T06:56:37.422Z,32.37
2023-05-06T06:57:37.418Z,32.36
2023-05-06T06:58:37.419Z,32.40
2023-05-06T06:59:37.415Z,32.37
2023-05-06T07:00:37.416Z,32.41
2023-05-06T07:01:37.557Z,32.42
2023-05-06T07:02:37.428Z,32.60
2023-05-06T07:03:37.420Z,32.67
2023-05-06T07:04:37.503Z,32.69
2023-05-06T07:05:37.418Z,32.82
2023-05-06T07:06:37.412Z,32.82
2023-05-06T07:07:37.420Z,32.87
2023-05-06T07:08:37.419Z,32.89
2023-05-06T07:09:39.542Z,32.91
2023-05-06T07:10:37.419Z,32.97
2023-05-06T07:11:37.493Z,32.98
2023-05-06T07:12:37.455Z,32.98
2023-05-06T07:13:37.413Z,32.97
2023-05-06T07:14:37.403Z,32.97
2023-05-06T07:15:37.408Z,32.93
2023-05-06T07:16:37.435Z,32.93
2023-05-06T07:17:37.427Z,32.92
2023-05-06T07:18:37.411Z,32.94
2023-05-06T07:19:37.401Z,33.12
2023-05-06T07:20:37.401Z,33.48
2023-05-06T07:21:37.397Z,33.60
2023-05-06T07:22:37.395Z,33.43
2023-05-06T07:23:37.399Z,33.42
2023-05-06T07:24:37.390Z,33.42
2023-05-06T07:25:37.380Z,33.34
2023-05-06T07:26:37.405Z,33.16
2023-05-06T07:27:37.430Z,33.09
2023-05-06T07:28:37.396Z,32.95
2023-05-06T07:29:37.377Z,32.85
2023-05-06T07:30:37.384Z,32.79
2023-05-06T07:31:37.396Z,32.77
2023-05-06T07:32:37.433Z,32.66
2023-05-06T07:33:37.388Z,32.61
2023-05-06T07:34:37.393Z,32.47
2023-05-06T07:35:37.385Z,32.47
2023-05-06T07:36:39.449Z,32.45
2023-05-06T07:37:37.364Z,32.26
2023-05-06T07:38:37.364Z,32.20
2023-05-06T07:39:37.371Z,32.20
2023-05-06T07:40:37.370Z,32.07
2023-05-06T07:41:37.357Z,31.97
2023-05-06T07:42:37.354Z,31.96
2023-05-06T07:43:37.419Z,31.93
2023-05-06T07:44:37.340Z,31.92
2023-05-06T07:45:37.359Z,31.93
2023-05-06T07:46:37.416Z,31.89
2023-05-06T07:47:37.392Z,31.82
2023-05-06T07:48:37.332Z,31.72
2023-05-06T07:49:37.315Z,31.73
2023-05-06T07:50:37.323Z,31.70
2023-05-06T07:51:37.320Z,31.78
2023-05-06T07:52:37.318Z,31.68
2023-05-06T07:53:37.319Z,31.67
2023-05-06T07:54:37.324Z,31.64
2023-05-06T07:55:37.312Z,31.59
2023-05-06T07:56:37.304Z,31.56
2023-05-06T07:57:37.313Z,31.48
2023-05-06T07:58:37.301Z,31.44
2023-05-06T07:59:37.400Z,31.42
2023-05-06T08:00:37.285Z,31.35
2023-05-06T08:01:37.299Z,31.31
2023-05-06T08:02:37.373Z,31.24
2023-05-06T08:03:37.426Z,31.16
2023-05-06T08:04:37.377Z,31.10
2023-05-06T08:05:37.318Z,31.36
2023-05-06T08:06:37.342Z,31.39
2023-05-06T08:07:37.341Z,31.43
2023-05-06T08:08:37.361Z,31.47
2023-05-06T08:09:37.350Z,31.42
2023-05-06T08:10:37.371Z,31.35
2023-05-06T08:11:37.392Z,31.30
2023-05-06T08:12:37.458Z,31.32
2023-05-06T08:13:37.403Z,31.33
2023-05-06T08:14:37.391Z,31.27
2023-05-06T08:15:37.497Z,31.27
2023-05-06T08:16:37.458Z,31.16
2023-05-06T08:17:37.438Z,31.14
2023-05-06T08:18:37.402Z,31.07
2023-05-06T08:19:37.393Z,31.11
2023-05-06T08:20:37.384Z,31.13
2023-05-06T08:21:37.382Z,31.15
2023-05-06T08:22:37.374Z,31.12
2023-05-06T08:23:37.372Z,31.15
2023-05-06T08:24:37.374Z,31.17
2023-05-06T08:25:37.373Z,31.11
2023-05-06T08:26:37.374Z,31.03
2023-05-06T08:27:37.369Z,31.12
2023-05-06T08:28:37.376Z,31.09
2023-05-06T08:29:37.353Z,31.11
2023-05-06T08:30:37.362Z,31.12
2023-05-06T08:31:37.555Z,31.22
2023-05-06T08:32:37.382Z,31.21
2023-05-06T08:33:37.340Z,31.22
2023-05-06T08:34:37.344Z,31.22
2023-05-06T08:35:37.328Z,31.19
2023-05-06T08:36:37.354Z,31.23
2023-05-06T08:37:37.331Z,31.27
2023-05-06T08:38:37.345Z,31.35
2023-05-06T08:39:37.329Z,31.37
2023-05-06T08:40:37.342Z,31.34
2023-05-06T08:41:37.331Z,31.24
2023-05-06T08:42:37.335Z,31.13
2023-05-06T08:43:37.333Z,31.07
2023-05-06T08:44:37.318Z,30.98
2023-05-06T08:45:37.315Z,30.90
2023-05-06T08:46:37.309Z,30.91
2023-05-06T08:47:37.339Z,30.89
2023-05-06T08:48:37.308Z,30.83
2023-05-06T08:49:37.296Z,30.78
2023-05-06T08:50:37.289Z,30.77
2023-05-06T08:51:37.278Z,30.74
2023-05-06T08:52:37.261Z,30.71
2023-05-06T08:53:37.280Z,30.64
2023-05-06T08:54:37.326Z,30.59
2023-05-06T08:55:37.395Z,30.46
2023-05-06T08:56:37.437Z,30.40
2023-05-06T08:57:37.496Z,30.29
2023-05-06T08:58:37.563Z,30.29
2023-05-06T08:59:37.627Z,30.18
2023-05-06T09:00:37.704Z,30.08
2023-05-06T09:01:37.847Z,29.98
2023-05-06T09:02:38.793Z,29.89
2023-05-06T09:03:38.167Z,29.86
2023-05-06T09:04:38.080Z,29.82
2023-05-06T09:05:38.122Z,29.85
2023-05-06T09:06:38.162Z,29.82
2023-05-06T09:07:38.230Z,29.80
2023-05-06T09:08:38.250Z,29.82
2023-05-06T09:09:38.271Z,29.86
2023-05-06T09:10:38.302Z,29.84
2023-05-06T09:11:38.345Z,29.84
2023-05-06T09:12:38.395Z,29.79
2023-05-06T09:13:38.411Z,29.76
2023-05-06T09:14:38.414Z,29.86
2023-05-06T09:15:38.446Z,29.79
2023-05-06T09:16:38.507Z,29.79
2023-05-06T09:17:38.537Z,29.78
2023-05-06T09:18:38.461Z,29.80
2023-05-06T09:19:38.481Z,29.79
2023-05-06T09:20:38.464Z,29.75
2023-05-06T09:21:38.422Z,29.75
2023-05-06T09:22:38.430Z,29.68
2023-05-06T09:23:38.460Z,29.77
2023-05-06T09:24:38.397Z,29.71
2023-05-06T09:25:38.389Z,29.74
2023-05-06T09:26:38.392Z,29.77
2023-05-06T09:27:38.369Z,29.74
2023-05-06T09:28:38.380Z,29.75
2023-05-06T09:29:38.354Z,29.74
2023-05-06T09:30:38.471Z,29.72
2023-05-06T09:31:38.359Z,29.75
2023-05-06T09:32:40.199Z,29.77
2023-05-06T09:33:38.366Z,29.76
2023-05-06T09:34:38.313Z,29.78
2023-05-06T09:35:38.399Z,29.72
2023-05-06T09:36:38.290Z,29.77
2023-05-06T09:37:38.281Z,29.77
2023-05-06T09:38:38.290Z,29.75
2023-05-06T09:39:38.287Z,29.76
2023-05-06T09:40:38.261Z,29.72
2023-05-06T09:41:38.254Z,29.74
2023-05-06T09:42:38.253Z,29.73
2023-05-06T09:43:38.373Z,29.70
2023-05-06T09:44:38.260Z,29.69
2023-05-06T09:45:38.272Z,29.69
2023-05-06T09:46:38.397Z,29.63
2023-05-06T09:47:38.367Z,29.65
2023-05-06T09:48:38.250Z,29.67
2023-05-06T09:49:38.239Z,29.62
2023-05-06T09:50:38.254Z,29.61
2023-05-06T09:51:38.244Z,29.66
2023-05-06T09:52:38.245Z,29.62
2023-05-06T09:53:38.267Z,29.56
2023-05-06T09:54:38.229Z,29.57
2023-05-06T09:55:38.239Z,29.61
2023-05-06T09:56:38.246Z,29.58
2023-05-06T09:57:38.226Z,29.57
2023-05-06T09:58:38.228Z,29.58
2023-05-06T09:59:38.225Z,29.60
2023-05-06T10:00:38.233Z,29.59
2023-05-06T10:01:38.322Z,29.58
2023-05-06T10:02:38.397Z,29.54
2023-05-06T10:03:38.420Z,29.54
2023-05-06T10:04:38.473Z,29.53
2023-05-06T10:05:38.333Z,29.54
2023-05-06T10:06:38.338Z,29.60
2023-05-06T10:07:38.402Z,29.53
2023-05-06T10:08:38.372Z,29.54
2023-05-06T10:09:38.385Z,29.59
2023-05-06T10:10:38.400Z,29.57
2023-05-06T10:11:38.420Z,29.58
2023-05-06T10:12:38.468Z,29.59
2023-05-06T10:13:38.468Z,29.55
2023-05-06T10:14:38.445Z,29.60
2023-05-06T10:15:38.454Z,29.57
2023-05-06T10:16:38.530Z,29.58
2023-05-06T10:17:38.469Z,29.57
2023-05-06T10:18:38.461Z,29.57
2023-05-06T10:19:38.457Z,29.55
2023-05-06T10:20:38.454Z,29.57
2023-05-06T10:21:38.460Z,29.62
2023-05-06T10:22:38.470Z,29.61
2023-05-06T10:23:38.555Z,29.58
2023-05-06T10:24:38.457Z,29.59
2023-05-06T10:25:38.451Z,29.62
2023-05-06T10:26:38.440Z,29.58
2023-05-06T10:27:38.416Z,29.62
2023-05-06T10:28:38.410Z,29.59
2023-05-06T10:29:38.394Z,29.61
2023-05-06T10:30:38.366Z,29.56
2023-05-06T10:31:38.376Z,29.62
2023-05-06T10:32:38.376Z,29.58
2023-05-06T10:33:39.807Z,29.61
2023-05-06T10:34:38.300Z,29.56
2023-05-06T10:35:38.301Z,29.57
2023-05-06T10:36:38.277Z,29.53
2023-05-06T10:37:38.276Z,29.56
2023-05-06T10:38:38.270Z,29.59
2023-05-06T10:39:40.817Z,29.54
2023-05-06T10:40:38.285Z,29.54
2023-05-06T10:41:38.210Z,29.54
2023-05-06T10:42:38.227Z,29.52
2023-05-06T10:43:38.191Z,29.47
2023-05-06T10:44:38.181Z,29.46
2023-05-06T10:45:38.189Z,29.52
2023-05-06T10:46:38.153Z,29.46
2023-05-06T10:47:38.139Z,29.48
2023-05-06T10:48:38.118Z,29.48
2023-05-06T10:49:38.102Z,29.43
2023-05-06T10:50:38.092Z,29.42
2023-05-06T10:51:38.117Z,29.42
2023-05-06T10:52:38.086Z,29.45
2023-05-06T10:53:38.072Z,29.45
2023-05-06T10:54:38.049Z,29.42
2023-05-06T10:55:38.117Z,29.39
2023-05-06T10:56:38.028Z,29.46
2023-05-06T10:57:38.016Z,29.42
2023-05-06T10:58:38.013Z,29.45
2023-05-06T10:59:38.001Z,29.40
2023-05-06T11:00:37.979Z,29.42
2023-05-06T11:01:38.068Z,29.39
2023-05-06T11:02:38.183Z,29.38
2023-05-06T11:03:38.150Z,29.38
2023-05-06T11:04:38.169Z,29.38
2023-05-06T11:05:38.196Z,29.24
2023-05-06T11:06:38.254Z,29.31
2023-05-06T11:07:38.310Z,29.20
2023-05-06T11:08:38.369Z,29.19
2023-05-06T11:09:38.412Z,29.13
2023-05-06T11:10:38.438Z,29.12
2023-05-06T11:11:38.594Z,29.11
2023-05-06T11:12:38.635Z,29.03
2023-05-06T11:13:38.554Z,29.00
2023-05-06T11:14:38.608Z,28.97
2023-05-06T11:15:38.632Z,28.92
2023-05-06T11:16:38.945Z,28.95
2023-05-06T11:17:38.707Z,28.92
2023-05-06T11:18:38.721Z,28.92
2023-05-06T11:19:38.735Z,28.85
2023-05-06T11:20:38.757Z,28.84
2023-05-06T11:21:38.809Z,28.84
2023-05-06T11:22:38.813Z,28.82
2023-05-06T11:23:38.836Z,28.80
2023-05-06T11:24:38.859Z,28.81
2023-05-06T11:25:38.885Z,28.82
2023-05-06T11:26:38.891Z,28.73
2023-05-06T11:27:38.964Z,28.73
2023-05-06T11:28:38.922Z,28.70
2023-05-06T11:29:38.959Z,28.76
2023-05-06T11:30:38.977Z,28.70
2023-05-06T11:31:38.949Z,28.63
2023-05-06T11:32:39.010Z,28.65
2023-05-06T11:33:38.967Z,28.68
2023-05-06T11:34:38.969Z,28.65
2023-05-06T11:35:38.985Z,28.62
2023-05-06T11:36:38.985Z,28.61
2023-05-06T11:37:39.018Z,28.60
2023-05-06T11:38:38.997Z,28.58
2023-05-06T11:39:40.917Z,28.57
2023-05-06T11:40:38.974Z,28.58
2023-05-06T11:41:38.977Z,28.57
2023-05-06T11:42:38.965Z,28.58
2023-05-06T11:43:39.101Z,28.57
2023-05-06T11:44:38.985Z,28.60
2023-05-06T11:45:38.967Z,28.60
2023-05-06T11:46:39.015Z,28.62
2023-05-06T11:47:38.996Z,28.61
2023-05-06T11:48:38.972Z,28.61
2023-05-06T11:49:39.001Z,28.63
2023-05-06T11:50:38.987Z,28.63
2023-05-06T11:51:38.987Z,28.63
2023-05-06T11:52:38.989Z,28.63
2023-05-06T11:53:39.008Z,28.68
2023-05-06T11:54:39.005Z,28.62
2023-05-06T11:55:39.006Z,28.61
2023-05-06T11:56:39.006Z,28.60
2023-05-06T11:57:39.005Z,28.55
2023-05-06T11:58:39.006Z,28.58
2023-05-06T11:59:39.073Z,28.56
2023-05-06T12:00:39.005Z,28.56
2023-05-06T12:01:39.010Z,28.54
2023-05-06T12:02:39.101Z,28.47
2023-05-06T12:03:39.165Z,28.46
2023-05-06T12:04:39.080Z,28.45
2023-05-06T12:05:38.977Z,28.46
2023-05-06T12:06:38.950Z,28.42
2023-05-06T12:07:38.938Z,28.40
2023-05-06T12:08:38.964Z,28.45
2023-05-06T12:09:38.927Z,28.43
2023-05-06T12:10:38.910Z,28.47
2023-05-06T12:11:38.887Z,28.46
2023-05-06T12:12:38.928Z,28.47
2023-05-06T12:13:38.856Z,28.44
2023-05-06T12:14:38.861Z,28.42
2023-05-06T12:15:38.932Z,28.44
2023-05-06T12:16:38.915Z,28.42
2023-05-06T12:17:38.855Z,28.40
2023-05-06T12:18:38.789Z,28.38
2023-05-06T12:19:38.771Z,28.38
2023-05-06T12:20:38.752Z,28.41
2023-05-06T12:21:38.734Z,28.35
2023-05-06T12:22:38.720Z,28.40
2023-05-06T12:23:38.796Z,28.41
2023-05-06T12:24:38.697Z,28.40
2023-05-06T12:25:38.700Z,28.40
2023-05-06T12:26:38.660Z,28.40
2023-05-06T12:27:38.657Z,28.44
2023-05-06T12:28:38.628Z,28.41
2023-05-06T12:29:38.631Z,28.38
2023-05-06T12:30:38.604Z,28.38
2023-05-06T12:31:38.676Z,28.34
2023-05-06T12:32:38.650Z,28.31
2023-05-06T12:33:38.582Z,28.27
2023-05-06T12:34:38.575Z,28.29
2023-05-06T12:35:38.559Z,28.25
2023-05-06T12:36:38.549Z,28.26
2023-05-06T12:37:38.525Z,28.16
2023-05-06T12:38:38.503Z,28.22
2023-05-06T12:39:38.532Z,28.22
2023-05-06T12:40:38.508Z,28.19
2023-05-06T12:41:38.457Z,28.17
2023-05-06T12:42:38.444Z,28.17
2023-05-06T12:43:38.429Z,28.14
2023-05-06T12:44:38.434Z,28.16
2023-05-06T12:45:38.484Z,28.11
2023-05-06T12:46:38.370Z,28.09
2023-05-06T12:47:38.379Z,28.16
2023-05-06T12:48:38.329Z,28.14
2023-05-06T12:49:38.307Z,28.12
2023-05-06T12:50:38.304Z,28.12
2023-05-06T12:51:38.271Z,28.10
2023-05-06T12:52:38.260Z,28.10